Marcellus, New York
Current Conditions -  °F | °C
As of 8:54 AM on Tuesday 21 Oct 2014 (Local Time) from KSYR Reporting Station
Light Rain Light Rain  
Wind Chill: 47°   Ceiling: 3000
Heat Index: 49°   Visibility: 5mi
Dew Point: 46°   Wind: 6mph
Humidity: 91%   Direction: 100°E
Pressure: 29.85"   Gusts: NA
Location:  42.98°N, 76.34°W
Report Text: KSYR 211254Z COR 10005KT 5SM -RA BR SCT020 BKN030 OVC050 09/08 A2985 RMK DZE21RAB21 SLP105 T00940080
Loading
Personal Weather Stations






























Interactive Weather Map
Tropical Storm Tracking
New forecast layout! Learn more

10-Day Weather Forecast

Advertisements
Track Severe Weather on mobile